Friday, April 20, 2018, 6:30 AM EDT
Back to Local

KGKJ, Port Meadville Airport

Location: Meadville, PA, United States Lat: 41.633
Local Time: 6:30 AM EDT (10:30 GMT) Lon: -80.217
Time Zone: US/Eastern Elev: 1400 ft

Show me the last for .
Show Decoded

2018-04-20 05:53 METAR KGKJ 200953Z AUTO 32005KT 10SM CLR M02/M04 A3029 RMK AO2 SLP271 T10221039
                 =
2018-04-20 04:53 METAR KGKJ 200853Z AUTO 29004KT 10SM CLR M02/M04 A3027 RMK AO2 SLP265 T10221044
                 53016 =
2018-04-20 03:53 METAR KGKJ 200753Z AUTO 29004KT 10SM CLR M02/M05 A3025 RMK AO2 SLP258 T10221050
                 =
2018-04-20 02:53 METAR KGKJ 200653Z AUTO 27006KT 10SM CLR M03/M05 A3024 RMK AO2 SLP255 T10281050
                 =
2018-04-20 01:53 METAR KGKJ 200553Z AUTO 27004KT 10SM CLR M03/M05 A3022 RMK AO2 SLP249 T10281050
                 10006 21028 53000 =
2018-04-20 00:53 METAR KGKJ 200453Z AUTO 26004KT 10SM CLR M03/M04 A3022 RMK AO2 SLP248 T10281044
                 400171028 =
2018-04-19 23:53 METAR KGKJ 200353Z AUTO 26004KT 10SM CLR M02/M04 A3022 RMK AO2 SLP250 T10221044
                 =
2018-04-19 22:53 METAR KGKJ 200253Z AUTO 30004KT 10SM CLR M02/M04 A3022 RMK AO2 SLP250 T10171044
                 51019 =
2018-04-19 22:15 METAR KGKJ 200215Z AUTO 35008KT 10SM SCT023 M01/M04 A3022 RMK AO2 T10111044 =
2018-04-19 21:53 METAR KGKJ 200153Z AUTO 33009G16KT 10SM OVC024 M01/M04 A3021 RMK AO2 SLP246
                 T10061044 =
2018-04-19 21:05 METAR KGKJ 200105Z AUTO 31011G16KT 10SM BKN027 M01/M04 A3020 RMK AO2 T10061044 =
2018-04-19 20:53 METAR KGKJ 200053Z AUTO 32011KT 10SM FEW025 M01/M04 A3019 RMK AO2 SLP238
                 T10061044 =
2018-04-19 19:53 METAR KGKJ 192353Z AUTO 32011G20KT 10SM CLR 01/M04 A3016 RMK AO2 SLP228
                 T00061044 10017 20006 51019 =
2018-04-19 18:53 METAR KGKJ 192253Z AUTO 31016G28KT 10SM CLR 02/M06 A3014 RMK AO2 PK WND
                 31028/2247 SLP219 T00171056 =
2018-04-19 18:17 METAR KGKJ 192217Z AUTO 32011G21KT 280V350 10SM SCT030 01/M04 A3013 RMK AO2
                 T00111044 =
2018-04-19 17:53 METAR KGKJ 192153Z AUTO 32012G21KT 10SM BKN028 01/M04 A3013 RMK AO2 PK WND
                 31027/2057 SLP218 T00061044 =
2018-04-19 17:15 METAR KGKJ 192115Z AUTO 32017G25KT 10SM BKN028 OVC033 01/M05 A3012 RMK AO2 PK
                 WND 31027/2057 T00061050 =
2018-04-19 16:53 METAR KGKJ 192053Z AUTO 29017G29KT 10SM OVC030 01/M04 A3010 RMK AO2 PK WND
                 30033/2043 SLP208 T00111044 53023 =
2018-04-19 16:46 METAR KGKJ 192046Z AUTO 30020G33KT 10SM BKN030 OVC035 02/M04 A3010 RMK AO2 PK
                 WND 30033/2043 T00171044 =
2018-04-19 15:53 METAR KGKJ 191953Z AUTO 29013G27KT 260V320 10SM BKN025 OVC032 01/M04 A3007 RMK
                 AO2 PK WND 30027/1947 SLP197 T00111039 =
2018-04-19 14:53 METAR KGKJ 191853Z AUTO 30013G24KT 10SM BKN019 OVC026 01/M03 A3006 RMK AO2
                 SLP191 T00061028 =
2018-04-19 13:53 METAR KGKJ 191753Z AUTO 31012G23KT 10SM OVC026 01/M04 A3003 RMK AO2 SLP182 60000
                 T00111039 10011 21011 51032 =
2018-04-19 12:53 METAR KGKJ 191653Z AUTO 33011G21KT 10SM OVC029 01/M04 A3000 RMK AO2 SLP172
                 T00111044 =
2018-04-19 11:53 METAR KGKJ 191553Z AUTO 32008G23KT 10SM OVC027 00/M04 A2997 RMK AO2 SNE08 SLP160
                 P0000 T00001039 =
2018-04-19 10:53 METAR KGKJ 191453Z AUTO 34008KT 9SM -SN SCT020 OVC026 M01/M03 A2993 RMK AO2
                 SNB28 SLP149 P0000 60000 T10061033 53038 =
2018-04-19 10:35 METAR KGKJ 191435Z AUTO 31008G16KT 9SM -SN BKN026 OVC033 M01/M04 A2992 RMK AO2
                 SNB28 P0000 T10061039 =
2018-04-19 10:20 METAR KGKJ 191420Z AUTO 32010KT 10SM SCT023 BKN030 OVC036 M01/M04 A2991 RMK AO2
                 T10061039 =
2018-04-19 09:53 METAR KGKJ 191353Z AUTO 33012G18KT 10SM BKN027 OVC033 M01/M04 A2989 RMK AO2
                 SLP135 T10061044 =
2018-04-19 08:53 METAR KGKJ 191253Z AUTO 33009G15KT 10SM SCT013 BKN018 OVC025 M01/M02 A2985 RMK
                 AO2 SNE27 SLP119 P0000 T10111022 =
2018-04-19 08:33 METAR KGKJ 191233Z AUTO 34007G18KT 10SM SCT009 BKN013 OVC021 M01/M02 A2983 RMK
                 AO2 SNE27 P0000 T10111022 =
2018-04-19 08:24 METAR KGKJ 191224Z AUTO 35009KT 7SM -SN BKN009 BKN014 OVC020 M01/M02 A2983 RMK
                 AO2 P0000 T10111017 =
2018-04-19 08:14 METAR KGKJ 191214Z AUTO 34009G15KT 2 1/2SM -SN BR BKN009 OVC020 M01/M02 A2983
                 RMK AO2 P0000 T10111017 =
2018-04-19 08:04 METAR KGKJ 191204Z AUTO 34009G16KT 2 1/2SM -SN BR BKN010 BKN013 OVC021 M01/M02
                 A2982 RMK AO2 P0000 T10111017 =
2018-04-19 07:53 METAR KGKJ 191153Z AUTO 34010KT 2 1/2SM -SN BR BKN008 BKN012 OVC022 M01/M02
                 A2982 RMK AO2 SLP107 P0001 60002 70005 I6002 T10111017 10000 21011 53010 =
2018-04-19 07:50 METAR KGKJ 191150Z AUTO 34007KT 2 1/2SM -SN BR BKN008 BKN012 OVC020 M01/M02
                 A2981 RMK AO2 P0001 =
2018-04-19 07:32 METAR KGKJ 191132Z AUTO 35008KT 2SM -SN BR SCT008 BKN012 OVC026 M01/M02 A2981
                 RMK AO2 P0001 T10111022 =
2018-04-19 07:10 METAR KGKJ 191110Z AUTO 35009G16KT 4SM -SN BR BKN007 OVC021 M01/M02 A2979 RMK
                 AO2 P0000 T10111017 =
2018-04-19 06:53 METAR KGKJ 191053Z AUTO 35009KT 2 1/2SM -SN BR BKN006 OVC012 M01/M02 A2978 RMK
                 AO2 SNB0955 SLP097 P0001 T10111017 =
2018-04-19 06:41 METAR KGKJ 191041Z AUTO 34006KT 1 3/4SM -SN BR BKN006 OVC012 M01/M02 A2978 RMK
                 AO2 SNB0955 P0000 T10111017 =

Support USWX by starting your Amazon purchase here.